Brandon, Michigan
Current Conditions -  °F | °C
As of 5:53 AM on Thursday 27 Nov 2014 (Local Time) from KPTK Reporting Station
Scattered Clouds Scattered Clouds  
Wind Chill: 17°   Ceiling: Unl
Heat Index: 24°   Visibility: 10mi
Dew Point: 19°   Wind: 6mph
Humidity: 81%   Direction: 290°WNW
Pressure: 30.08"   Gusts: NA
Location:  42.8429°N, 83.4301°W
Report Text: KPTK 271053Z 29005KT 10SM SCT045 M04/M07 A3008 RMK AO2 SLP199 FIRST AUGMENTED OBS OF THE DAY T10441072
Loading
Personal Weather Stations






























Interactive Weather Map New forecast layout! Learn more

10-Day Weather Forecast

Advertisements
Track Severe Weather on mobile